Time;durP1;ratioP1;P1;durP2;ratioP2;P2;SDS_P1;SDS_P2;PMS_P1;PMS_P2;Temp;Humidity;BMP_temperature;BMP_pressure;BME280_temperature;BME280_humidity;BME280_pressure;Samples;Min_cycle;Max_cycle;Signal;HPM_P1;HPM_P2
2022/09/13 00:01:52;;;;;;;;;;;;;;;22.92;51.82;100671.88;5135952;27;19931;-37
2022/09/13 00:04:18;;;;;;;;;;;;;;;22.91;51.91;100669.41;5120601;27;20369;-37
2022/09/13 00:06:43;;;;;;;;;;;;;;;22.91;51.76;100661.91;5138870;27;19927;-37
2022/09/13 00:09:09;;;;;;;;;;;;;;;22.92;51.67;100666.31;5137390;27;19938;-37
2022/09/13 00:11:34;;;;;;;;;;;;;;;22.91;51.62;100667.47;5139407;27;19933;-37
2022/09/13 00:14:00;;;;;;;;;;;;;;;22.92;51.61;100648.84;5136455;27;19991;-37
2022/09/13 00:16:28;;;;;;;;;;;;;;;22.91;51.70;100644.44;5134511;27;19946;-37
2022/09/13 00:18:54;;;;;;;;;;;;;;;22.91;51.70;100645.25;5122061;27;19946;-37
2022/09/13 00:21:20;;;;;;;;;;;;;;;22.90;51.84;100646.38;5142254;27;20350;-37
2022/09/13 00:23:46;;;;;;;;;;;;;;;22.91;51.66;100642.47;5137875;27;20422;-38
2022/09/13 00:26:13;;;;;;;;;;;;;;;22.89;51.85;100635.56;5139307;27;20346;-37
2022/09/13 00:28:39;;;;;;;;;;;;;;;22.91;51.68;100642.47;5122989;27;19975;-37
2022/09/13 00:31:05;;;;;;;;;;;;;;;22.91;51.77;100647.19;5144599;27;19927;-37
2022/09/13 00:33:30;;;;;;;;;;;;;;;22.90;51.84;100651.94;5140602;27;20483;-37
2022/09/13 00:35:56;;;;;;;;;;;;;;;22.91;51.89;100653.56;5141363;27;19951;-37
2022/09/13 00:38:22;;;;;;;;;;;;;;;22.91;51.79;100652.75;5139439;27;20269;-38
2022/09/13 00:40:47;;;;;;;;;;;;;;;22.91;51.62;100642.47;5118039;27;19923;-37
2022/09/13 00:43:15;;;;;;;;;;;;;;;22.90;51.67;100645.56;5143547;27;19923;-37
2022/09/13 00:45:41;;;;;;;;;;;;;;;22.91;51.75;100652.75;5135308;27;20066;-37
2022/09/13 00:48:06;;;;;;;;;;;;;;;22.90;51.82;100645.56;5141452;27;19923;-37
2022/09/13 00:50:36;;;;;;;;;;;;;;;22.90;51.70;100645.56;5136723;27;20286;-37
2022/09/13 00:53:18;;;;;;;;;;;;;;;22.91;51.78;100645.25;5139886;27;19955;-37
2022/09/13 00:55:52;;;;;;;;;;;;;;;22.91;51.74;100638.88;5122014;27;19976;-37
2022/09/13 00:58:20;;;;;;;;;;;;;;;22.89;51.79;100636.38;5124941;27;19970;-37
2022/09/13 01:00:46;;;;;;;;;;;;;;;22.89;51.75;100638.34;5117043;27;20018;-38
2022/09/13 01:03:12;;;;;;;;;;;;;;;22.90;51.87;100626.13;5123178;27;19975;-37
2022/09/13 01:05:40;;;;;;;;;;;;;;;22.90;51.80;100631.69;5117545;27;20369;-37
2022/09/13 01:08:11;;;;;;;;;;;;;;;22.90;51.90;100635.28;5144448;27;19970;-37
2022/09/13 01:10:39;;;;;;;;;;;;;;;22.90;51.75;100635.28;5136440;27;19977;-38
2022/09/13 01:13:11;;;;;;;;;;;;;;;22.90;51.74;100634.47;5135226;27;20412;-37
2022/09/13 01:15:37;;;;;;;;;;;;;;;22.92;51.58;100643.28;5116401;27;20015;-37
2022/09/13 01:18:03;;;;;;;;;;;;;;;22.89;51.66;100641.94;5118774;28;19923;-37
2022/09/13 01:20:35;;;;;;;;;;;;;;;22.90;51.88;100642.78;5142414;27;20277;-37
2022/09/13 01:23:06;;;;;;;;;;;;;;;22.90;51.72;100640.00;5134208;27;20413;-37
2022/09/13 01:25:38;;;;;;;;;;;;;;;22.89;51.63;100636.38;5138714;27;19967;-37
2022/09/13 01:28:23;;;;;;;;;;;;;;;22.90;51.76;100623.34;5145293;27;19981;-37
2022/09/13 01:30:55;;;;;;;;;;;;;;;22.88;51.66;100626.38;5122042;27;20011;-37
2022/09/13 01:33:31;;;;;;;;;;;;;;;22.89;51.63;100630.00;5139070;27;19959;-37
2022/09/13 01:36:17;;;;;;;;;;;;;;;22.90;51.77;100620.56;5142312;27;20361;-37
2022/09/13 01:39:02;;;;;;;;;;;;;;;22.88;51.80;100618.06;5125414;27;20019;-38
2022/09/13 01:41:47;;;;;;;;;;;;;;;22.90;51.82;100626.13;5122529;27;20019;-38
2022/09/13 01:44:33;;;;;;;;;;;;;;;22.88;51.57;100622.78;5124723;27;19967;-38
2022/09/13 01:47:02;;;;;;;;;;;;;;;22.89;51.72;100618.91;5119198;27;20009;-37
2022/09/13 01:49:31;;;;;;;;;;;;;;;22.89;51.72;100616.13;5139521;27;20294;-37
2022/09/13 01:52:00;;;;;;;;;;;;;;;22.89;51.66;100616.13;5138811;27;20251;-37
2022/09/13 01:54:31;;;;;;;;;;;;;;;22.88;51.68;100606.97;5138586;27;19970;-38
2022/09/13 01:57:02;;;;;;;;;;;;;;;22.88;51.66;100609.72;5136049;27;19975;-37
2022/09/13 01:59:36;;;;;;;;;;;;;;;22.90;51.79;100615.03;5124789;27;20633;-38
2022/09/13 02:02:04;;;;;;;;;;;;;;;22.88;51.64;100606.13;5135700;27;20014;-38
2022/09/13 02:04:35;;;;;;;;;;;;;;;22.87;51.72;100605.31;5131997;27;19927;-37
2022/09/13 02:07:02;;;;;;;;;;;;;;;22.89;51.79;100610.59;5118233;27;20010;-37
2022/09/13 02:09:29;;;;;;;;;;;;;;;22.87;51.80;100599.78;5138442;27;20356;-37
2022/09/13 02:11:58;;;;;;;;;;;;;;;22.87;51.70;100605.31;5139266;27;20014;-38
2022/09/13 02:14:26;;;;;;;;;;;;;;;22.88;51.67;100612.50;5117726;27;20018;-37
2022/09/13 02:16:54;;;;;;;;;;;;;;;22.88;51.62;100606.97;5115196;28;19967;-38
2022/09/13 02:19:37;;;;;;;;;;;;;;;22.88;51.60;100606.13;5139839;27;19924;-37
2022/09/13 02:22:03;;;;;;;;;;;;;;;22.87;51.73;100602.53;5140493;27;20026;-37
2022/09/13 02:24:30;;;;;;;;;;;;;;;22.88;51.70;100600.59;5137771;27;20380;-38
2022/09/13 02:26:55;;;;;;;;;;;;;;;22.87;51.73;100598.94;5137328;27;20015;-37
2022/09/13 02:29:23;;;;;;;;;;;;;;;22.87;51.86;100596.16;5137632;27;19923;-38
2022/09/13 02:31:50;;;;;;;;;;;;;;;22.87;51.70;100597.00;5137014;27;20014;-38
2022/09/13 02:34:17;;;;;;;;;;;;;;;22.87;51.80;100591.44;5126316;27;19976;-37
2022/09/13 02:36:43;;;;;;;;;;;;;;;22.88;51.66;100593.06;5137623;27;19973;-37
2022/09/13 02:39:11;;;;;;;;;;;;;;;22.86;51.78;100605.66;5144556;27;19923;-38
2022/09/13 02:41:53;;;;;;;;;;;;;;;22.87;51.62;100604.50;5137422;27;19971;-37
2022/09/13 02:44:22;;;;;;;;;;;;;;;22.88;51.67;100606.13;5131549;27;20026;-37
2022/09/13 02:47:05;;;;;;;;;;;;;;;22.87;51.70;100601.72;5135690;27;20392;-37
2022/09/13 02:49:33;;;;;;;;;;;;;;;22.86;51.79;100609.25;5140835;27;20018;-37
2022/09/13 02:52:06;;;;;;;;;;;;;;;22.87;51.71;100607.28;5137387;27;20352;-37
2022/09/13 02:54:36;;;;;;;;;;;;;;;22.87;51.66;100605.31;5117649;27;20018;-37
2022/09/13 02:59:44;;;;;;;;;;;;;;;22.86;51.74;100609.25;5180497;27;19926;-37
2022/09/13 03:02:11;;;;;;;;;;;;;;;22.85;51.63;100618.72;5174744;27;19931;-37
2022/09/13 03:04:37;;;;;;;;;;;;;;;22.87;51.75;100613.66;5179745;27;19978;-37
2022/09/13 03:07:03;;;;;;;;;;;;;;;22.86;51.53;100616.75;5173104;27;19923;-37
2022/09/13 03:09:29;;;;;;;;;;;;;;;22.87;51.75;100623.94;5180143;27;20009;-37
2022/09/13 03:14:59;;;;;;;;;;;;;;;22.86;51.71;100617.56;5181875;27;20368;-37
2022/09/13 03:17:44;;;;;;;;;;;;;;;22.86;51.72;100619.53;5148086;27;19962;-37
2022/09/13 03:20:11;;;;;;;;;;;;;;;22.86;51.63;100619.53;5164168;27;19982;-37
2022/09/13 03:22:48;;;;;;;;;;;;;;;22.85;51.67;100610.38;5164418;27;19981;-37
2022/09/13 03:28:07;;;;;;;;;;;;;;;22.85;51.71;100618.72;5162054;27;19926;-37
2022/09/13 03:30:33;;;;;;;;;;;;;;;22.85;51.77;100604.00;5167913;27;19930;-37
2022/09/13 03:33:17;;;;;;;;;;;;;;;22.86;51.71;100605.66;5166828;27;19922;-37
2022/09/13 03:35:48;;;;;;;;;;;;;;;22.86;51.79;100602.88;5165152;27;19958;-37
2022/09/13 03:38:15;;;;;;;;;;;;;;;22.85;51.87;100596.50;5166767;27;20009;-37
2022/09/13 03:40:43;;;;;;;;;;;;;;;22.86;51.71;100597.31;5165551;27;19965;-37
2022/09/13 03:43:12;;;;;;;;;;;;;;;22.85;51.57;100592.91;5164626;27;19978;-37
2022/09/13 03:45:39;;;;;;;;;;;;;;;22.85;51.72;100599.28;5166411;27;20026;-37
2022/09/13 03:48:05;;;;;;;;;;;;;;;22.84;51.79;100594.88;5169230;27;19975;-37
2022/09/13 03:50:30;;;;;;;;;;;;;;;22.86;51.71;100591.75;5168772;27;19923;-37
2022/09/13 03:52:58;;;;;;;;;;;;;;;22.85;51.72;100590.94;5167462;27;19942;-37
2022/09/13 03:55:24;;;;;;;;;;;;;;;22.85;51.64;100582.63;5167411;27;20009;-37
2022/09/13 03:57:50;;;;;;;;;;;;;;;22.86;51.69;100586.22;5165786;27;19969;-37
2022/09/13 04:00:17;;;;;;;;;;;;;;;22.83;51.77;100584.88;5169597;27;19923;-37
2022/09/13 04:02:42;;;;;;;;;;;;;;;22.85;51.71;100579.03;5149467;27;19976;-37
2022/09/13 04:05:08;;;;;;;;;;;;;;;22.86;51.70;100583.44;5166654;27;19923;-37
2022/09/13 04:07:33;;;;;;;;;;;;;;;22.84;51.82;100578.19;5167094;27;20399;-37
2022/09/13 04:09:59;;;;;;;;;;;;;;;22.86;51.71;100588.97;5168471;27;19934;-37
2022/09/13 04:12:25;;;;;;;;;;;;;;;22.84;51.84;100583.75;5166534;27;20353;-38
2022/09/13 04:14:51;;;;;;;;;;;;;;;22.83;51.76;100587.66;5166396;27;20014;-38
2022/09/13 04:17:17;;;;;;;;;;;;;;;22.86;51.69;100588.97;5164241;27;19927;-37
2022/09/13 04:19:44;;;;;;;;;;;;;;;22.84;51.77;100586.53;5149601;27;19923;-37
2022/09/13 04:22:10;;;;;;;;;;;;;;;22.85;51.75;100588.16;5149026;27;20061;-37
2022/09/13 04:24:36;;;;;;;;;;;;;;;22.85;51.82;100595.69;5171107;27;20353;-37
2022/09/13 04:27:01;;;;;;;;;;;;;;;22.85;51.78;100590.94;5149201;27;20021;-37
2022/09/13 04:29:27;;;;;;;;;;;;;;;22.83;51.77;100590.41;5149210;27;20376;-37
2022/09/13 04:31:53;;;;;;;;;;;;;;;22.85;51.74;100590.94;5166368;27;19938;-37
2022/09/13 04:34:21;;;;;;;;;;;;;;;22.85;51.79;100592.91;5168044;27;19967;-37
2022/09/13 04:36:46;;;;;;;;;;;;;;;22.84;51.75;100597.63;5166501;27;20412;-38
2022/09/13 04:39:13;;;;;;;;;;;;;;;22.83;51.76;100598.75;5153175;27;19930;-37
2022/09/13 04:41:40;;;;;;;;;;;;;;;22.84;51.81;100594.88;5136114;27;20022;-38
2022/09/13 04:44:05;;;;;;;;;;;;;;;22.83;51.87;100595.97;5134008;27;19974;-37
2022/09/13 04:46:31;;;;;;;;;;;;;;;22.83;51.64;100609.84;5151703;27;20274;-37
2022/09/13 04:48:57;;;;;;;;;;;;;;;22.83;51.69;100609.03;5154037;27;19979;-38
2022/09/13 04:51:22;;;;;;;;;;;;;;;22.84;51.77;100611.53;5143130;27;19923;-37
2022/09/13 04:53:53;;;;;;;;;;;;;;;22.85;51.85;100615.13;5145961;27;19931;-37
2022/09/13 04:56:19;;;;;;;;;;;;;;;22.63;52.38;100608.38;5132166;27;20034;-37
2022/09/13 04:58:44;;;;;;;;;;;;;;;22.74;52.03;100595.91;5143615;27;19923;-37
2022/09/13 05:01:10;;;;;;;;;;;;;;;22.79;51.82;100590.22;5138684;27;19927;-37
2022/09/13 05:03:36;;;;;;;;;;;;;;;22.81;51.69;100598.25;5127108;27;20269;-37
2022/09/13 05:06:02;;;;;;;;;;;;;;;22.82;51.82;100601.84;5122549;27;19934;-40
2022/09/13 05:08:28;;;;;;;;;;;;;;;22.80;51.78;100596.63;5145988;27;20013;-37
2022/09/13 05:10:54;;;;;;;;;;;;;;;22.82;51.68;100607.41;5145742;27;19935;-37
2022/09/13 05:13:19;;;;;;;;;;;;;;;22.81;51.71;100611.31;5148230;27;19931;-37
2022/09/13 05:15:45;;;;;;;;;;;;;;;22.84;51.35;100608.75;5139915;27;19931;-37
2022/09/13 05:18:11;;;;;;;;;;;;;;;22.81;51.20;100606.59;5145380;27;19923;-37
2022/09/13 05:20:36;;;;;;;;;;;;;;;22.81;50.94;100605.78;5149011;27;19939;-37
2022/09/13 05:23:02;;;;;;;;;;;;;;;22.84;51.26;100614.28;5145708;27;20406;-39
2022/09/13 05:25:27;;;;;;;;;;;;;;;22.82;51.35;100607.41;5140664;27;19968;-43
2022/09/13 05:27:53;;;;;;;;;;;;;;;22.41;51.67;100605.53;5142086;27;19931;-42
2022/09/13 05:30:18;;;;;;;;;;;;;;;22.29;52.38;100608.84;5141374;27;19923;-47
2022/09/13 05:32:44;;;;;;;;;;;;;;;22.53;52.17;100617.75;5147333;27;19927;-39
2022/09/13 05:35:10;;;;;;;;;;;;;;;22.68;52.27;100613.00;5145727;27;19934;-39
2022/09/13 05:37:35;;;;;;;;;;;;;;;22.78;52.76;100616.34;5144768;27;20008;-37
2022/09/13 05:40:01;;;;;;;;;;;;;;;22.68;52.64;100604.66;5137386;27;20329;-39
2022/09/13 05:42:42;;;;;;;;;;;;;;;22.78;52.85;100601.66;5147210;27;19931;-39
2022/09/13 05:45:08;;;;;;;;;;;;;;;22.86;53.29;100600.91;5136382;27;20088;-38
2022/09/13 05:47:33;;;;;;;;;;;;;;;22.92;53.14;100605.22;5135037;27;20092;-41
2022/09/13 05:49:59;;;;;;;;;;;;;;;22.95;52.95;100609.34;5139806;27;19923;-37
2022/09/13 05:52:36;;;;;;;;;;;;;;;22.94;52.97;100610.47;5136159;27;19974;-37
2022/09/13 05:55:01;;;;;;;;;;;;;;;22.95;52.95;100606.56;5122456;27;19957;-37
2022/09/13 05:57:27;;;;;;;;;;;;;;;22.95;53.07;100610.16;5145269;27;20355;-39
2022/09/13 05:59:52;;;;;;;;;;;;;;;22.96;53.00;100609.00;5124054;27;20385;-40
2022/09/13 06:02:18;;;;;;;;;;;;;;;22.96;52.77;100614.56;5128519;27;19931;-38
2022/09/13 06:04:44;;;;;;;;;;;;;;;22.95;52.75;100612.13;5135915;27;19934;-37
2022/09/13 06:07:11;;;;;;;;;;;;;;;22.96;52.77;100610.97;5135779;27;20026;-39
2022/09/13 06:09:36;;;;;;;;;;;;;;;22.93;52.66;100631.06;5132472;27;20029;-38
2022/09/13 06:12:02;;;;;;;;;;;;;;;22.33;53.49;100617.38;5131098;27;20281;-42
2022/09/13 06:14:28;;;;;;;;;;;;;;;22.56;53.36;100613.53;5133093;27;19930;-38
2022/09/13 06:16:53;;;;;;;;;;;;;;;22.77;52.94;100614.72;5137535;27;19931;-39
2022/09/13 06:19:19;;;;;;;;;;;;;;;22.84;52.95;100619.84;5134282;27;19993;-39
2022/09/13 06:21:45;;;;;;;;;;;;;;;22.88;52.80;100620.84;5133530;27;19927;-40
2022/09/13 06:24:10;;;;;;;;;;;;;;;22.90;52.92;100623.34;5128809;27;19942;-40
2022/09/13 06:26:36;;;;;;;;;;;;;;;22.92;52.93;100624.66;5128847;27;20381;-38
2022/09/13 06:29:01;;;;;;;;;;;;;;;22.93;52.70;100625.50;5130259;27;19960;-38
2022/09/13 06:31:27;;;;;;;;;;;;;;;22.94;52.74;100621.59;5133672;27;19934;-41
2022/09/13 06:33:56;;;;;;;;;;;;;;;22.94;52.78;100629.94;5133395;27;20425;-40
2022/09/13 06:36:21;;;;;;;;;;;;;;;22.92;52.83;100618.28;5116724;27;20005;-39
2022/09/13 06:38:47;;;;;;;;;;;;;;;22.93;52.79;100618.00;5128175;27;19934;-39
2022/09/13 06:41:14;;;;;;;;;;;;;;;22.85;53.08;100615.94;5129068;27;19983;-44
2022/09/13 06:43:40;;;;;;;;;;;;;;;22.94;52.82;100618.81;5115488;27;20014;-41
2022/09/13 06:46:08;;;;;;;;;;;;;;;22.96;52.78;100619.31;5136366;27;19931;-42
2022/09/13 06:48:34;;;;;;;;;;;;;;;22.96;52.76;100613.75;5113838;27;20417;-41
2022/09/13 06:51:00;;;;;;;;;;;;;;;22.97;52.71;100607.06;5129234;27;20613;-44
2022/09/13 06:53:27;;;;;;;;;;;;;;;22.98;52.71;100611.50;5133756;27;20109;-42
2022/09/13 06:56:13;;;;;;;;;;;;;;;22.98;52.99;100608.72;5127503;27;20021;-41
2022/09/13 06:58:39;;;;;;;;;;;;;;;22.98;53.04;100608.72;5115513;27;20019;-43
2022/09/13 07:03:42;;;;;;;;;;;;;;;22.98;52.69;100603.16;5142317;27;19992;-38
2022/09/13 07:06:08;;;;;;;;;;;;;;;22.99;52.70;100608.41;5125030;27;19931;-42
2022/09/13 07:08:33;;;;;;;;;;;;;;;23.00;52.73;100603.66;5130910;27;19934;-41
2022/09/13 07:10:59;;;;;;;;;;;;;;;23.02;52.56;100606.97;5128704;27;19923;-40
2022/09/13 07:13:24;;;;;;;;;;;;;;;23.01;52.64;100605.28;5133406;27;19942;-43
2022/09/13 07:15:50;;;;;;;;;;;;;;;23.02;52.60;100609.75;5133915;27;20414;-41
2022/09/13 07:18:16;;;;;;;;;;;;;;;23.01;52.57;100616.41;5121866;27;19931;-43
2022/09/13 07:20:41;;;;;;;;;;;;;;;23.02;52.56;100612.50;5124324;27;20590;-40
2022/09/13 07:23:07;;;;;;;;;;;;;;;23.05;52.52;100611.88;5140169;27;19932;-40
2022/09/13 07:25:32;;;;;;;;;;;;;;;22.88;52.94;100606.97;5130495;27;19938;-42
2022/09/13 07:27:58;;;;;;;;;;;;;;;23.02;52.71;100618.88;5133092;27;20302;-42
2022/09/13 07:30:25;;;;;;;;;;;;;;;23.04;52.46;100619.38;5137041;27;19932;-42
2022/09/13 07:32:51;;;;;;;;;;;;;;;23.02;52.19;100620.84;5129272;27;19957;-43
2022/09/13 07:35:16;;;;;;;;;;;;;;;23.03;52.26;100614.97;5134297;27;19931;-41
2022/09/13 07:37:44;;;;;;;;;;;;;;;23.02;52.60;100627.22;5128639;27;20433;-40
2022/09/13 07:40:09;;;;;;;;;;;;;;;23.04;52.31;100629.66;5131245;27;19931;-40
2022/09/13 07:42:35;;;;;;;;;;;;;;;22.93;52.65;100622.72;5133787;27;19938;-40
2022/09/13 07:45:01;;;;;;;;;;;;;;;23.03;52.53;100622.47;5148222;27;19930;-44
2022/09/13 07:47:26;;;;;;;;;;;;;;;23.05;52.44;100634.09;5147715;27;19923;-41
2022/09/13 07:49:52;;;;;;;;;;;;;;;23.04;52.42;100636.03;5152486;27;20388;-41
2022/09/13 07:52:17;;;;;;;;;;;;;;;23.05;52.31;100639.63;5144314;27;19923;-40
2022/09/13 07:54:43;;;;;;;;;;;;;;;23.04;52.38;100647.16;5147612;27;19927;-42
2022/09/13 07:57:08;;;;;;;;;;;;;;;23.04;52.45;100641.59;5157156;27;19934;-44
2022/09/13 07:59:34;;;;;;;;;;;;;;;23.07;52.47;100650.47;5153242;27;19931;-40
2022/09/13 08:01:59;;;;;;;;;;;;;;;23.06;52.50;100649.63;5154701;27;19927;-44
2022/09/13 08:04:25;;;;;;;;;;;;;;;23.09;52.54;100653.72;5154600;27;19927;-41
2022/09/13 08:06:51;;;;;;;;;;;;;;;23.08;52.32;100647.34;5150663;27;20297;-42
2022/09/13 08:09:16;;;;;;;;;;;;;;;23.08;52.41;100652.91;5150314;27;19931;-42
2022/09/13 08:11:43;;;;;;;;;;;;;;;23.07;52.46;100642.94;5157576;27;20391;-41
2022/09/13 08:14:09;;;;;;;;;;;;;;;23.14;52.32;100646.09;5124227;27;19996;-41
2022/09/13 08:16:35;;;;;;;;;;;;;;;23.10;52.39;100635.91;5116487;27;20057;-41
2022/09/13 08:19:01;;;;;;;;;;;;;;;23.00;52.91;100637.00;5111258;27;20353;-40
2022/09/13 08:21:30;;;;;;;;;;;;;;;23.05;52.61;100639.63;5120618;27;20029;-42
2022/09/13 08:23:58;;;;;;;;;;;;;;;23.08;52.74;100639.03;5119678;27;19994;-42
2022/09/13 08:26:24;;;;;;;;;;;;;;;23.09;52.74;100639.84;5137999;27;20155;-41
2022/09/13 08:28:53;;;;;;;;;;;;;;;23.11;52.67;100640.38;5145378;27;20365;-42
2022/09/13 08:31:21;;;;;;;;;;;;;;;23.11;52.82;100638.41;5120931;27;19923;-41
2022/09/13 08:33:48;;;;;;;;;;;;;;;23.14;52.88;100636.94;5136256;27;19927;-41
2022/09/13 08:36:14;;;;;;;;;;;;;;;23.15;52.58;100644.16;5122198;27;20180;-40
2022/09/13 08:38:47;;;;;;;;;;;;;;;23.12;52.73;100642.81;5112768;27;19931;-40
2022/09/13 08:41:32;;;;;;;;;;;;;;;23.15;52.55;100638.59;5129867;27;20485;-40
2022/09/13 08:43:59;;;;;;;;;;;;;;;23.13;52.75;100638.06;5113979;27;20184;-40
2022/09/13 08:46:25;;;;;;;;;;;;;;;23.15;52.55;100635.81;5125298;27;20556;-42
2022/09/13 08:48:52;;;;;;;;;;;;;;;23.13;52.37;100638.88;5130087;27;19931;-41
2022/09/13 08:51:35;;;;;;;;;;;;;;;23.11;52.58;100638.41;5140221;27;21209;-41
2022/09/13 08:54:02;;;;;;;;;;;;;;;23.14;52.48;100646.09;5137541;27;20183;-42
2022/09/13 08:56:37;;;;;;;;;;;;;;;23.17;52.19;100637.13;5136876;27;20017;-41
2022/09/13 08:59:22;;;;;;;;;;;;;;;23.15;52.31;100644.97;5135065;27;20026;-42
2022/09/13 09:02:08;;;;;;;;;;;;;;;23.14;52.45;100643.31;5114067;27;19994;-43
2022/09/13 09:04:37;;;;;;;;;;;;;;;23.17;52.15;100636.31;5119114;27;20511;-40
2022/09/13 09:07:19;;;;;;;;;;;;;;;23.16;52.14;100626.34;5135858;27;20006;-42
2022/09/13 09:09:48;;;;;;;;;;;;;;;23.18;52.30;100630.44;5136865;27;19931;-40
2022/09/13 09:12:15;;;;;;;;;;;;;;;23.14;52.39;100629.41;5134543;27;20308;-40
2022/09/13 09:14:43;;;;;;;;;;;;;;;23.15;52.35;100625.53;5134329;27;19929;-40
2022/09/13 09:17:13;;;;;;;;;;;;;;;23.15;52.28;100619.16;5116374;27;20523;-40
2022/09/13 09:19:39;;;;;;;;;;;;;;;23.16;52.19;100613.28;5134644;27;19998;-45
2022/09/13 09:22:10;;;;;;;;;;;;;;;23.16;52.43;100626.34;5132144;27;20018;-43
2022/09/13 09:24:36;;;;;;;;;;;;;;;23.15;52.19;100633.03;5135796;27;20565;-40
2022/09/13 09:27:02;;;;;;;;;;;;;;;23.17;52.37;100630.75;5132462;27;19923;-40
2022/09/13 09:29:28;;;;;;;;;;;;;;;23.19;52.30;100628.50;5117523;27;19923;-44
2022/09/13 09:32:14;;;;;;;;;;;;;;;23.18;52.36;100627.66;5141016;27;20417;-41
2022/09/13 09:34:50;;;;;;;;;;;;;;;23.19;52.41;100631.28;5120671;27;20449;-41
2022/09/13 09:37:17;;;;;;;;;;;;;;;23.20;52.45;100632.91;5129695;27;19931;-40
2022/09/13 09:39:43;;;;;;;;;;;;;;;23.21;52.55;100631.78;5132440;27;20111;-41
2022/09/13 09:42:10;;;;;;;;;;;;;;;23.22;52.59;100625.06;5118691;27;19930;-42
2022/09/13 09:44:36;;;;;;;;;;;;;;;23.22;52.60;100633.41;5129906;27;19931;-40
2022/09/13 09:47:05;;;;;;;;;;;;;;;23.21;52.76;100626.22;5132353;27;20010;-40
2022/09/13 09:50:17;;;;;;;;;;;;;;;23.23;52.74;100635.88;5114969;27;19966;-42
2022/09/13 09:52:36;;;;;;;;;;;;;;;23.22;52.82;100616.72;5108774;27;20059;-40
2022/09/13 09:55:10;;;;;;;;;;;;;;;23.22;52.95;100620.31;5133960;27;20010;-45
2022/09/13 09:57:51;;;;;;;;;;;;;;;23.21;53.07;100621.47;5114344;27;20073;-40
2022/09/13 10:00:17;;;;;;;;;;;;;;;23.22;52.76;100627.84;5135505;27;20088;-40
2022/09/13 10:02:43;;;;;;;;;;;;;;;23.20;52.95;100625.41;5133002;27;19931;-40
2022/09/13 10:05:08;;;;;;;;;;;;;;;23.22;52.75;100627.84;5116971;27;19938;-40
2022/09/13 10:07:34;;;;;;;;;;;;;;;23.21;52.69;100618.69;5111779;27;19987;-40
2022/09/13 10:10:08;;;;;;;;;;;;;;;23.22;52.74;100622.28;5135851;27;19923;-41
2022/09/13 10:12:34;;;;;;;;;;;;;;;23.23;52.58;100621.19;5140223;27;20030;-40
2022/09/13 10:15:04;;;;;;;;;;;;;;;23.21;52.79;100617.88;5121557;27;20630;-42
2022/09/13 10:17:30;;;;;;;;;;;;;;;23.25;52.48;100607.78;5114922;27;19931;-40
2022/09/13 10:20:00;;;;;;;;;;;;;;;23.22;52.71;100606.44;5135111;27;19924;-40
2022/09/13 10:22:26;;;;;;;;;;;;;;;23.25;52.69;100607.78;5125042;27;20130;-42
2022/09/13 10:24:52;;;;;;;;;;;;;;;23.26;52.47;100613.00;5108991;27;19927;-41
2022/09/13 10:27:29;;;;;;;;;;;;;;;23.26;52.73;100606.63;5127801;27;20390;-41
2022/09/13 10:29:58;;;;;;;;;;;;;;;23.26;52.39;100607.44;5116480;27;20067;-41
2022/09/13 10:32:24;;;;;;;;;;;;;;;23.24;52.62;100604.19;5139305;27;20018;-41
2022/09/13 10:34:50;;;;;;;;;;;;;;;23.26;52.45;100604.66;5122709;27;20026;-40
2022/09/13 10:37:32;;;;;;;;;;;;;;;23.25;52.67;100610.56;5133773;27;19929;-40
2022/09/13 10:40:00;;;;;;;;;;;;;;;23.25;52.60;100607.78;5139085;27;20013;-40
2022/09/13 10:42:26;;;;;;;;;;;;;;;23.24;52.61;100612.50;5132453;27;20445;-40
2022/09/13 10:44:54;;;;;;;;;;;;;;;23.26;52.71;100606.63;5106022;27;20115;-41
2022/09/13 10:47:24;;;;;;;;;;;;;;;23.26;52.97;100603.84;5103210;27;20035;-42
2022/09/13 10:49:51;;;;;;;;;;;;;;;23.25;52.93;100603.03;5115490;27;20010;-40
2022/09/13 10:52:33;;;;;;;;;;;;;;;23.26;52.89;100606.63;5125872;27;20523;-40
2022/09/13 10:55:14;;;;;;;;;;;;;;;23.27;52.96;100599.94;5118067;27;19934;-41
2022/09/13 10:57:40;;;;;;;;;;;;;;;23.26;52.87;100606.63;5130000;27;20013;-41
2022/09/13 11:00:08;;;;;;;;;;;;;;;23.26;52.89;100599.13;5132711;27;21507;-40
2022/09/13 11:05:19;;;;;;;;;;;;;;;23.25;53.05;100605.81;5149357;27;20321;-42
2022/09/13 11:07:49;;;;;;;;;;;;;;;23.25;53.06;100596.66;5116728;27;20070;-41
2022/09/13 11:10:20;;;;;;;;;;;;;;;23.25;52.46;100591.09;5139053;27;20022;-38
2022/09/13 11:12:49;;;;;;;;;;;;;;;23.25;53.12;100607.78;5124490;27;20014;-41
2022/09/13 11:15:35;;;;;;;;;;;;;;;23.24;53.03;100595.84;5136703;27;20014;-40
2022/09/13 11:18:12;;;;;;;;;;;;;;;23.25;53.12;100591.09;5122243;27;20006;-38
2022/09/13 11:20:57;;;;;;;;;;;;;;;23.13;54.56;100597.22;5133270;27;19978;-47
2022/09/13 11:23:43;;;;;;;;;;;;;;;23.23;54.02;100590.63;5119462;27;20042;-40
2022/09/13 11:26:11;;;;;;;;;;;;;;;23.17;54.11;100587.13;5120326;27;20073;-38
2022/09/13 11:28:56;;;;;;;;;;;;;;;23.23;54.18;100577.53;5133873;27;20006;-40
2022/09/13 11:31:28;;;;;;;;;;;;;;;23.26;53.76;100584.41;5132654;27;20038;-38
2022/09/13 11:34:06;;;;;;;;;;;;;;;23.27;53.93;100577.69;5136875;27;19923;-39
2022/09/13 11:39:16;;;;;;;;;;;;;;;23.27;53.91;100567.44;5162145;27;19957;-42
2022/09/13 11:41:47;;;;;;;;;;;;;;;23.27;53.75;100555.47;5150599;27;20444;-38
2022/09/13 11:44:33;;;;;;;;;;;;;;;23.26;53.59;100563.00;5142580;27;20254;-38
2022/09/13 11:47:18;;;;;;;;;;;;;;;23.27;53.77;100553.53;5107634;27;20018;-39
2022/09/13 11:50:04;;;;;;;;;;;;;;;23.27;53.80;100553.53;5119631;27;20346;-38
2022/09/13 11:52:36;;;;;;;;;;;;;;;23.29;53.51;100553.22;5121880;27;19959;-38
2022/09/13 11:55:05;;;;;;;;;;;;;;;23.29;53.80;100551.25;5137833;27;20014;-38
2022/09/13 11:57:33;;;;;;;;;;;;;;;23.28;53.66;100543.25;5122977;27;20074;-39
2022/09/13 12:00:02;;;;;;;;;;;;;;;23.29;53.55;100550.44;5108694;27;20044;-41
2022/09/13 12:02:31;;;;;;;;;;;;;;;23.28;53.50;100540.47;5118130;27;20238;-38
2022/09/13 12:05:06;;;;;;;;;;;;;;;23.28;53.42;100548.81;5142100;27;19931;-38
2022/09/13 12:07:50;;;;;;;;;;;;;;;23.28;53.38;100546.84;5124679;27;19931;-40
2022/09/13 12:10:20;;;;;;;;;;;;;;;23.29;53.48;100533.78;5144598;27;20026;-39
2022/09/13 12:12:48;;;;;;;;;;;;;;;23.29;53.34;100542.09;5139584;27;20023;-39
2022/09/13 12:18:06;;;;;;;;;;;;;;;23.29;53.21;100525.44;5159401;27;20018;-38
2022/09/13 12:20:33;;;;;;;;;;;;;;;23.31;53.17;100533.44;5146577;27;19965;-38
2022/09/13 12:23:00;;;;;;;;;;;;;;;23.31;53.04;100542.59;5147824;27;20361;-38
2022/09/13 12:25:27;;;;;;;;;;;;;;;23.31;53.16;100542.59;5120135;27;20025;-38
2022/09/13 12:27:55;;;;;;;;;;;;;;;23.28;53.92;100540.47;5127808;27;20014;-41
2022/09/13 12:30:22;;;;;;;;;;;;;;;23.28;53.80;100532.13;5146515;27;20326;-38
2022/09/13 12:32:47;;;;;;;;;;;;;;;23.33;53.40;100533.97;5153200;27;19965;-40
2022/09/13 12:35:33;;;;;;;;;;;;;;;23.32;53.56;100532.31;5152752;27;19931;-40
2022/09/13 12:38:18;;;;;;;;;;;;;;;23.32;53.45;100532.31;5131648;27;19963;-40
2022/09/13 12:41:02;;;;;;;;;;;;;;;23.31;53.45;100525.09;5138905;27;19931;-38
2022/09/13 12:43:31;;;;;;;;;;;;;;;23.31;53.64;100523.16;5148583;27;19929;-38
2022/09/13 12:46:17;;;;;;;;;;;;;;;23.32;53.37;100524.00;5146282;27;20014;-40
2022/09/13 12:49:02;;;;;;;;;;;;;;;23.31;53.18;100525.91;5143054;27;19977;-38
2022/09/13 12:51:48;;;;;;;;;;;;;;;23.33;53.30;100525.63;5131081;27;20377;-38
2022/09/13 12:54:17;;;;;;;;;;;;;;;23.32;53.02;100530.38;5129413;27;19980;-38
2022/09/13 12:56:47;;;;;;;;;;;;;;;23.34;53.60;100525.28;5145891;27;20352;-39
2022/09/13 12:59:24;;;;;;;;;;;;;;;23.33;53.23;100525.63;5149399;27;20002;-37
2022/09/13 13:01:50;;;;;;;;;;;;;;;23.33;53.31;100525.63;5153514;27;19982;-40
2022/09/13 13:04:24;;;;;;;;;;;;;;;23.32;53.19;100530.38;5150303;27;19970;-40
2022/09/13 13:06:58;;;;;;;;;;;;;;;23.33;53.25;100528.41;5129167;27;20431;-38